Terminal Aerodrome Forecast
Issued by NWS Duluth, MN

Home | Current Version | Previous Version | Text Only | Print | Product List | Glossary On
Versions: 1 2 3 4 5 6 7 8 9 10 11 12 13 14 15 16 17 18 19 20 21 22 23 24 25 26 27
493
FTUS43 KDLH 290708 AAC
TAFDLH
TAF AMD
KDLH 290708Z 2907/3006 32004KT 4SM -RA BR VCSH SCT006 OVC027
      TEMPO 2907/2910 2SM -TSRA BR BKN006 OVC027CB
     FM291000 31009KT 2SM BR VCSH BKN008
     FM291500 33009KT 4SM BR BKN010
     FM291800 34008KT P6SM BKN025
     FM292300 03008KT P6SM BKN035=

USA.gov is the U.S. government's official web portal to all federal, state and local government web resources and services.